createdAt,value
2024-01-31T01:42:06.084Z,6.8
2024-01-31T01:52:08.522Z,6.6
2024-01-31T02:12:12.777Z,6.4
2024-01-31T02:22:15.260Z,6.3
2024-01-31T02:32:17.665Z,6.2
2024-01-31T02:42:20.296Z,6.1
2024-01-31T03:12:26.358Z,5.9
2024-01-31T03:32:30.919Z,5.9
2024-01-31T03:42:33.163Z,5.9
2024-01-31T03:52:35.496Z,5.9
2024-01-31T04:02:37.390Z,5.9
2024-01-31T04:22:42.418Z,5.8
2024-01-31T04:32:44.337Z,5.8
2024-01-31T04:42:46.210Z,5.8
2024-01-31T04:52:48.451Z,5.8
2024-01-31T05:02:50.826Z,5.8
2024-01-31T05:12:53.200Z,5.7
2024-01-31T05:22:55.806Z,5.7
2024-01-31T05:32:58.206Z,5.7
2024-01-31T05:42:59.832Z,5.7
2024-01-31T05:53:02.247Z,5.7
2024-01-31T06:03:04.242Z,5.7
2024-01-31T06:23:08.956Z,5.7
2024-01-31T06:33:10.669Z,5.7
2024-01-31T06:43:12.591Z,5.7
2024-01-31T06:53:14.896Z,5.7
2024-01-31T07:03:17.373Z,5.7
2024-01-31T07:13:19.967Z,5.7
2024-01-31T07:23:22.421Z,5.7
2024-01-31T07:33:24.934Z,5.8
2024-01-31T07:43:27.349Z,5.9
2024-01-31T07:53:29.797Z,5.8
2024-01-31T08:03:32.423Z,5.9
2024-01-31T08:13:34.309Z,6
2024-01-31T08:23:36.384Z,6
2024-01-31T08:33:38.880Z,6
2024-01-31T08:43:40.633Z,6
2024-01-31T08:53:42.805Z,6.1
2024-01-31T09:13:47.055Z,6.2
2024-01-31T09:23:50.645Z,6.2
2024-01-31T09:33:51.492Z,6.1
2024-01-31T09:43:53.989Z,6.2
2024-01-31T09:53:56.084Z,6.3
2024-01-31T10:03:58.317Z,6.4
2024-01-31T10:14:00.452Z,6.6
2024-01-31T10:24:02.564Z,6.7
2024-01-31T10:34:04.630Z,6.7
2024-01-31T10:44:06.650Z,6.9
2024-01-31T10:54:09.227Z,7.1
2024-01-31T11:04:11.448Z,7.3
2024-01-31T11:14:14.018Z,7.4
2024-01-31T11:24:16.461Z,7.4
2024-01-31T11:34:18.527Z,7.4
2024-01-31T11:44:20.163Z,7.5
2024-01-31T12:04:24.546Z,7.7
2024-01-31T12:14:26.996Z,7.9
2024-01-31T12:24:29.555Z,8
2024-01-31T12:44:33.847Z,8.1
2024-01-31T12:54:36.287Z,8.2
2024-01-31T13:04:38.418Z,8.3
2024-01-31T13:14:41.018Z,8.3
2024-01-31T13:24:43.223Z,8.3
2024-01-31T13:34:45.421Z,8.2
2024-01-31T13:44:46.976Z,8.1
2024-01-31T13:54:49.014Z,8
2024-01-31T14:04:51.550Z,7.9
2024-01-31T14:14:54.138Z,7.9
2024-01-31T14:24:56.621Z,7.8
2024-01-31T14:34:58.499Z,7.8
2024-01-31T14:45:00.479Z,7.8
2024-01-31T14:55:02.554Z,7.9
2024-01-31T15:05:04.582Z,7.8
2024-01-31T15:15:07.246Z,7.7
2024-01-31T15:25:09.270Z,7.6
2024-01-31T15:35:11.950Z,7.5
2024-01-31T15:45:13.706Z,7.5
2024-01-31T16:05:18.235Z,7.4
2024-01-31T16:15:19.951Z,7.3
2024-01-31T16:25:21.816Z,7.3
2024-01-31T16:35:23.498Z,7.2
2024-01-31T16:45:25.707Z,7.2
2024-01-31T16:55:28.199Z,7.2
2024-01-31T17:15:32.872Z,7
2024-01-31T17:25:34.664Z,7
2024-01-31T17:35:37.236Z,6.9
2024-01-31T17:45:38.990Z,6.8
2024-01-31T18:15:46.013Z,6.1
2024-01-31T18:35:50.531Z,6
2024-01-31T18:55:54.135Z,5.9
2024-01-31T19:15:57.846Z,6.2
2024-01-31T20:16:11.336Z,6.6
2024-01-31T20:46:17.473Z,6.9
2024-01-31T21:46:29.768Z,7.1
2024-01-31T21:56:31.986Z,7.2
2024-01-31T22:06:34.274Z,7.2
2024-01-31T22:16:36.862Z,7.3
2024-01-31T22:26:39.718Z,7.4
2024-01-31T22:36:41.778Z,7.4
2024-01-31T22:46:44.096Z,7.5
2024-01-31T22:56:46.369Z,7.5
2024-01-31T23:06:48.210Z,7.5
2024-01-31T23:16:50.064Z,7.5
2024-01-31T23:36:54.901Z,7.5
2024-01-31T23:38:22.285Z,7.5
2024-01-31T23:57:07.323Z,7.5
